sensor_id;sensor_type;location;lat;lon;timestamp;pressure;altitude;pressure_sealevel;temperature;humidity
21869;BME280;11099;41.564;23.296;2023-06-14T00:01:49;97147.34;;;19.67;100.00
21869;BME280;11099;41.564;23.296;2023-06-14T00:04:15;97135.75;;;19.70;100.00
21869;BME280;11099;41.564;23.296;2023-06-14T00:06:46;97192.00;;;20.09;100.00
21869;BME280;11099;41.564;23.296;2023-06-14T00:09:12;97127.88;;;19.51;100.00
21869;BME280;11099;41.564;23.296;2023-06-14T00:11:43;97152.25;;;20.09;100.00
21869;BME280;11099;41.564;23.296;2023-06-14T00:14:09;97136.66;;;19.85;100.00
21869;BME280;11099;41.564;23.296;2023-06-14T00:16:35;97237.97;;;20.67;100.00
21869;BME280;11099;41.564;23.296;2023-06-14T00:19:02;97237.59;;;20.72;100.00
21869;BME280;11099;41.564;23.296;2023-06-14T00:21:31;97131.84;;;20.19;100.00
21869;BME280;11099;41.564;23.296;2023-06-14T00:23:58;97232.59;;;20.74;100.00
21869;BME280;11099;41.564;23.296;2023-06-14T00:26:24;97127.53;;;20.11;100.00
21869;BME280;11099;41.564;23.296;2023-06-14T00:28:51;97191.38;;;20.30;100.00
21869;BME280;11099;41.564;23.296;2023-06-14T00:31:17;97155.22;;;19.90;100.00
21869;BME280;11099;41.564;23.296;2023-06-14T00:33:43;97230.94;;;20.59;100.00
21869;BME280;11099;41.564;23.296;2023-06-14T00:36:08;97172.66;;;20.62;100.00
21869;BME280;11099;41.564;23.296;2023-06-14T00:38:34;97095.69;;;19.76;100.00
21869;BME280;11099;41.564;23.296;2023-06-14T00:41:00;97170.41;;;20.12;100.00
21869;BME280;11099;41.564;23.296;2023-06-14T00:43:25;97081.50;;;19.89;100.00
21869;BME280;11099;41.564;23.296;2023-06-14T00:45:51;97110.63;;;20.24;100.00
21869;BME280;11099;41.564;23.296;2023-06-14T00:48:17;97214.69;;;20.52;100.00
21869;BME280;11099;41.564;23.296;2023-06-14T00:50:43;97177.25;;;20.58;100.00
21869;BME280;11099;41.564;23.296;2023-06-14T00:53:14;97195.03;;;20.59;100.00
21869;BME280;11099;41.564;23.296;2023-06-14T00:55:40;97139.22;;;19.67;100.00
21869;BME280;11099;41.564;23.296;2023-06-14T00:58:06;97185.94;;;20.26;100.00
21869;BME280;11099;41.564;23.296;2023-06-14T01:00:33;97147.34;;;19.70;100.00
21869;BME280;11099;41.564;23.296;2023-06-14T01:02:58;97097.13;;;19.59;100.00
21869;BME280;11099;41.564;23.296;2023-06-14T01:05:24;97129.06;;;19.53;100.00
21869;BME280;11099;41.564;23.296;2023-06-14T01:08:07;97200.19;;;19.71;100.00
21869;BME280;11099;41.564;23.296;2023-06-14T01:10:56;97200.00;;;19.54;100.00
21869;BME280;11099;41.564;23.296;2023-06-14T01:13:34;97207.28;;;19.46;100.00
21869;BME280;11099;41.564;23.296;2023-06-14T01:16:00;97122.00;;;19.01;100.00
21869;BME280;11099;41.564;23.296;2023-06-14T01:18:28;97204.38;;;19.62;100.00
21869;BME280;11099;41.564;23.296;2023-06-14T01:20:55;97083.56;;;18.70;100.00
21869;BME280;11099;41.564;23.296;2023-06-14T01:23:22;97136.00;;;18.76;100.00
21869;BME280;11099;41.564;23.296;2023-06-14T01:25:49;97135.28;;;18.79;100.00
21869;BME280;11099;41.564;23.296;2023-06-14T01:28:20;97211.97;;;19.15;100.00
21869;BME280;11099;41.564;23.296;2023-06-14T01:30:48;97156.59;;;18.91;100.00
21869;BME280;11099;41.564;23.296;2023-06-14T01:33:24;97190.25;;;19.05;100.00
21869;BME280;11099;41.564;23.296;2023-06-14T01:35:52;97229.03;;;19.23;100.00
21869;BME280;11099;41.564;23.296;2023-06-14T01:38:21;97223.00;;;19.78;100.00
21869;BME280;11099;41.564;23.296;2023-06-14T01:40:47;97219.81;;;20.13;100.00
21869;BME280;11099;41.564;23.296;2023-06-14T01:43:14;97231.50;;;20.24;100.00
21869;BME280;11099;41.564;23.296;2023-06-14T01:45:41;97190.06;;;20.09;100.00
21869;BME280;11099;41.564;23.296;2023-06-14T01:48:07;97146.84;;;20.06;100.00
21869;BME280;11099;41.564;23.296;2023-06-14T01:50:34;97223.63;;;20.63;100.00
21869;BME280;11099;41.564;23.296;2023-06-14T01:52:59;97181.72;;;20.32;100.00
21869;BME280;11099;41.564;23.296;2023-06-14T01:55:25;97187.63;;;19.90;100.00
21869;BME280;11099;41.564;23.296;2023-06-14T01:57:51;97171.38;;;19.05;100.00
21869;BME280;11099;41.564;23.296;2023-06-14T02:00:17;97241.03;;;19.66;100.00
21869;BME280;11099;41.564;23.296;2023-06-14T02:02:43;97248.19;;;19.14;100.00
21869;BME280;11099;41.564;23.296;2023-06-14T02:05:09;97248.94;;;19.45;100.00
21869;BME280;11099;41.564;23.296;2023-06-14T02:07:35;97129.91;;;18.79;100.00
21869;BME280;11099;41.564;23.296;2023-06-14T02:10:02;97227.00;;;19.16;100.00
21869;BME280;11099;41.564;23.296;2023-06-14T02:12:28;97168.91;;;18.89;100.00
21869;BME280;11099;41.564;23.296;2023-06-14T02:14:53;97257.38;;;19.43;100.00
21869;BME280;11099;41.564;23.296;2023-06-14T02:17:19;97129.13;;;18.49;100.00
21869;BME280;11099;41.564;23.296;2023-06-14T02:19:45;97251.47;;;19.31;100.00
21869;BME280;11099;41.564;23.296;2023-06-14T02:22:11;97252.00;;;19.10;100.00
21869;BME280;11099;41.564;23.296;2023-06-14T02:24:37;97267.97;;;18.92;100.00
21869;BME280;11099;41.564;23.296;2023-06-14T02:27:03;97205.78;;;18.81;100.00
21869;BME280;11099;41.564;23.296;2023-06-14T02:29:28;97174.03;;;18.67;100.00
21869;BME280;11099;41.564;23.296;2023-06-14T02:31:54;97124.50;;;18.19;100.00
21869;BME280;11099;41.564;23.296;2023-06-14T02:34:19;97266.63;;;19.42;100.00
21869;BME280;11099;41.564;23.296;2023-06-14T02:36:47;97205.03;;;18.84;100.00
21869;BME280;11099;41.564;23.296;2023-06-14T02:39:13;97231.72;;;19.23;100.00
21869;BME280;11099;41.564;23.296;2023-06-14T02:41:39;97182.44;;;18.92;100.00
21869;BME280;11099;41.564;23.296;2023-06-14T02:44:05;97259.16;;;19.66;100.00
21869;BME280;11099;41.564;23.296;2023-06-14T02:46:30;97267.66;;;19.64;100.00
21869;BME280;11099;41.564;23.296;2023-06-14T02:48:56;97172.78;;;18.91;100.00
21869;BME280;11099;41.564;23.296;2023-06-14T02:51:21;97273.50;;;19.70;100.00
21869;BME280;11099;41.564;23.296;2023-06-14T02:53:47;97232.34;;;19.84;100.00
21869;BME280;11099;41.564;23.296;2023-06-14T02:56:12;97196.00;;;19.78;100.00
21869;BME280;11099;41.564;23.296;2023-06-14T02:58:38;97198.81;;;19.92;100.00
21869;BME280;11099;41.564;23.296;2023-06-14T03:01:07;97229.22;;;19.78;100.00
21869;BME280;11099;41.564;23.296;2023-06-14T03:03:33;97284.31;;;19.06;100.00
21869;BME280;11099;41.564;23.296;2023-06-14T03:05:59;97284.25;;;19.33;100.00
21869;BME280;11099;41.564;23.296;2023-06-14T03:08:29;97235.63;;;18.65;100.00
21869;BME280;11099;41.564;23.296;2023-06-14T03:10:55;97295.44;;;19.01;100.00
21869;BME280;11099;41.564;23.296;2023-06-14T03:13:21;97288.53;;;19.04;100.00
21869;BME280;11099;41.564;23.296;2023-06-14T03:15:47;97307.41;;;19.04;100.00
21869;BME280;11099;41.564;23.296;2023-06-14T03:18:15;97255.56;;;18.61;100.00
21869;BME280;11099;41.564;23.296;2023-06-14T03:20:40;97188.06;;;18.24;100.00
21869;BME280;11099;41.564;23.296;2023-06-14T03:23:07;97322.09;;;19.06;100.00
21869;BME280;11099;41.564;23.296;2023-06-14T03:25:33;97305.31;;;19.20;100.00
21869;BME280;11099;41.564;23.296;2023-06-14T03:28:04;97316.09;;;18.90;100.00
21869;BME280;11099;41.564;23.296;2023-06-14T03:30:30;97300.59;;;18.83;100.00
21869;BME280;11099;41.564;23.296;2023-06-14T03:32:55;97225.06;;;18.27;100.00
21869;BME280;11099;41.564;23.296;2023-06-14T03:35:21;97296.53;;;18.97;100.00
21869;BME280;11099;41.564;23.296;2023-06-14T03:37:47;97300.56;;;18.80;100.00
21869;BME280;11099;41.564;23.296;2023-06-14T03:40:14;97323.47;;;18.93;100.00
21869;BME280;11099;41.564;23.296;2023-06-14T03:42:40;97310.66;;;18.86;100.00
21869;BME280;11099;41.564;23.296;2023-06-14T03:45:06;97311.50;;;18.90;100.00
21869;BME280;11099;41.564;23.296;2023-06-14T03:47:33;97249.88;;;18.39;100.00
21869;BME280;11099;41.564;23.296;2023-06-14T03:49:58;97292.34;;;18.46;100.00
21869;BME280;11099;41.564;23.296;2023-06-14T03:52:25;97321.59;;;18.97;100.00
21869;BME280;11099;41.564;23.296;2023-06-14T03:54:51;97308.13;;;19.31;100.00
21869;BME280;11099;41.564;23.296;2023-06-14T03:57:17;97315.91;;;19.36;100.00
21869;BME280;11099;41.564;23.296;2023-06-14T03:59:43;97270.75;;;18.69;100.00
21869;BME280;11099;41.564;23.296;2023-06-14T04:02:08;97317.59;;;18.87;100.00
21869;BME280;11099;41.564;23.296;2023-06-14T04:04:37;97312.44;;;19.05;100.00
21869;BME280;11099;41.564;23.296;2023-06-14T04:07:03;97261.13;;;18.45;100.00
21869;BME280;11099;41.564;23.296;2023-06-14T04:09:31;97299.44;;;18.84;100.00
21869;BME280;11099;41.564;23.296;2023-06-14T04:11:57;97322.88;;;19.07;100.00
21869;BME280;11099;41.564;23.296;2023-06-14T04:14:23;97308.31;;;19.15;100.00
21869;BME280;11099;41.564;23.296;2023-06-14T04:16:49;97299.53;;;19.21;100.00
21869;BME280;11099;41.564;23.296;2023-06-14T04:19:15;97255.06;;;19.42;100.00
21869;BME280;11099;41.564;23.296;2023-06-14T04:21:41;97197.47;;;19.31;100.00
21869;BME280;11099;41.564;23.296;2023-06-14T04:24:07;97329.63;;;20.32;100.00
21869;BME280;11099;41.564;23.296;2023-06-14T04:26:38;97327.31;;;20.34;100.00
21869;BME280;11099;41.564;23.296;2023-06-14T04:29:04;97314.00;;;20.59;100.00
21869;BME280;11099;41.564;23.296;2023-06-14T04:31:31;97288.56;;;20.67;100.00
21869;BME280;11099;41.564;23.296;2023-06-14T04:33:59;97263.91;;;22.13;100.00
21869;BME280;11099;41.564;23.296;2023-06-14T04:36:25;97315.50;;;23.61;100.00
21869;BME280;11099;41.564;23.296;2023-06-14T04:38:53;97323.06;;;24.02;100.00
21869;BME280;11099;41.564;23.296;2023-06-14T04:41:22;97269.78;;;23.45;100.00
21869;BME280;11099;41.564;23.296;2023-06-14T04:43:54;97244.56;;;23.48;100.00
21869;BME280;11099;41.564;23.296;2023-06-14T04:46:19;97255.31;;;24.22;100.00
21869;BME280;11099;41.564;23.296;2023-06-14T04:48:45;97283.78;;;24.96;98.00
21869;BME280;11099;41.564;23.296;2023-06-14T04:51:11;97312.56;;;24.93;99.18
21869;BME280;11099;41.564;23.296;2023-06-14T04:53:38;97274.34;;;24.66;99.49
21869;BME280;11099;41.564;23.296;2023-06-14T04:56:04;97339.03;;;25.31;98.61
21869;BME280;11099;41.564;23.296;2023-06-14T04:58:30;97273.56;;;24.66;95.23
21869;BME280;11099;41.564;23.296;2023-06-14T05:00:55;97333.13;;;24.08;99.08
21869;BME280;11099;41.564;23.296;2023-06-14T05:03:23;97360.91;;;24.82;96.10
21869;BME280;11099;41.564;23.296;2023-06-14T05:05:50;97245.41;;;24.46;95.06
21869;BME280;11099;41.564;23.296;2023-06-14T05:08:16;97348.22;;;25.78;93.13
21869;BME280;11099;41.564;23.296;2023-06-14T05:10:41;97329.25;;;24.61;97.64
21869;BME280;11099;41.564;23.296;2023-06-14T05:13:07;97274.78;;;24.99;93.68
21869;BME280;11099;41.564;23.296;2023-06-14T05:15:33;97358.25;;;25.85;92.85
21869;BME280;11099;41.564;23.296;2023-06-14T05:17:59;97333.00;;;24.75;95.88
21869;BME280;11099;41.564;23.296;2023-06-14T05:20:25;97349.00;;;25.79;92.19
21869;BME280;11099;41.564;23.296;2023-06-14T05:22:53;97295.09;;;24.53;94.15
21869;BME280;11099;41.564;23.296;2023-06-14T05:25:19;97360.72;;;25.72;93.08
21869;BME280;11099;41.564;23.296;2023-06-14T05:27:46;97359.72;;;24.83;95.99
21869;BME280;11099;41.564;23.296;2023-06-14T05:30:13;97330.34;;;25.05;94.55
21869;BME280;11099;41.564;23.296;2023-06-14T05:32:39;97318.38;;;25.94;89.53
21869;BME280;11099;41.564;23.296;2023-06-14T05:35:06;97326.94;;;25.66;89.26
21869;BME280;11099;41.564;23.296;2023-06-14T05:37:31;97299.66;;;25.01;91.79
21869;BME280;11099;41.564;23.296;2023-06-14T05:39:57;97335.78;;;25.77;91.12
21869;BME280;11099;41.564;23.296;2023-06-14T05:42:23;97341.16;;;26.08;89.61
21869;BME280;11099;41.564;23.296;2023-06-14T05:44:48;97337.78;;;26.00;88.50
21869;BME280;11099;41.564;23.296;2023-06-14T05:47:14;97376.91;;;25.56;90.95
21869;BME280;11099;41.564;23.296;2023-06-14T05:49:39;97291.97;;;24.92;91.18
21869;BME280;11099;41.564;23.296;2023-06-14T05:52:06;97362.69;;;25.00;85.02
21869;BME280;11099;41.564;23.296;2023-06-14T05:54:32;97300.88;;;24.96;80.60
21869;BME280;11099;41.564;23.296;2023-06-14T05:56:57;97375.03;;;26.37;75.64
21869;BME280;11099;41.564;23.296;2023-06-14T05:59:29;97375.75;;;26.41;76.15
21869;BME280;11099;41.564;23.296;2023-06-14T06:01:55;97364.63;;;26.79;73.63
21869;BME280;11099;41.564;23.296;2023-06-14T06:04:20;97374.88;;;26.95;73.54
21869;BME280;11099;41.564;23.296;2023-06-14T06:06:46;97376.97;;;26.37;75.45
21869;BME280;11099;41.564;23.296;2023-06-14T06:09:12;97321.41;;;25.08;79.74
21869;BME280;11099;41.564;23.296;2023-06-14T06:11:40;97354.81;;;25.12;79.96
21869;BME280;11099;41.564;23.296;2023-06-14T06:14:05;97381.09;;;25.30;81.42
21869;BME280;11099;41.564;23.296;2023-06-14T06:16:31;97342.38;;;24.66;79.29
21869;BME280;11099;41.564;23.296;2023-06-14T06:18:56;97385.13;;;24.73;80.25
21869;BME280;11099;41.564;23.296;2023-06-14T06:21:21;97345.00;;;24.77;80.25
21869;BME280;11099;41.564;23.296;2023-06-14T06:23:47;97325.56;;;24.79;80.38
21869;BME280;11099;41.564;23.296;2023-06-14T06:26:12;97337.94;;;24.87;80.03
21869;BME280;11099;41.564;23.296;2023-06-14T06:28:38;97375.25;;;24.90;80.75
21869;BME280;11099;41.564;23.296;2023-06-14T06:31:03;97377.97;;;24.45;83.11
21869;BME280;11099;41.564;23.296;2023-06-14T06:33:29;97325.88;;;23.91;85.52
21869;BME280;11099;41.564;23.296;2023-06-14T06:35:55;97374.44;;;24.48;85.31
21869;BME280;11099;41.564;23.296;2023-06-14T06:38:20;97315.66;;;24.06;86.33
21869;BME280;11099;41.564;23.296;2023-06-14T06:40:46;97292.22;;;24.23;85.93
21869;BME280;11099;41.564;23.296;2023-06-14T06:43:11;97337.50;;;24.92;83.72
21869;BME280;11099;41.564;23.296;2023-06-14T06:45:41;97372.44;;;25.69;80.17
21869;BME280;11099;41.564;23.296;2023-06-14T06:48:07;97366.13;;;26.06;80.80
21869;BME280;11099;41.564;23.296;2023-06-14T06:50:34;97365.81;;;24.98;81.91
21869;BME280;11099;41.564;23.296;2023-06-14T06:53:00;97371.22;;;26.04;79.83
21869;BME280;11099;41.564;23.296;2023-06-14T06:55:25;97358.28;;;25.81;78.06
21869;BME280;11099;41.564;23.296;2023-06-14T06:57:51;97269.19;;;26.01;76.43
21869;BME280;11099;41.564;23.296;2023-06-14T07:00:17;97342.13;;;26.71;74.83
21869;BME280;11099;41.564;23.296;2023-06-14T07:02:43;97269.13;;;26.05;74.57
21869;BME280;11099;41.564;23.296;2023-06-14T07:05:09;97373.59;;;26.56;76.23
21869;BME280;11099;41.564;23.296;2023-06-14T07:07:34;97345.50;;;26.56;74.53
21869;BME280;11099;41.564;23.296;2023-06-14T07:10:00;97300.19;;;24.89;76.29
21869;BME280;11099;41.564;23.296;2023-06-14T07:12:27;97375.38;;;26.43;73.31
21869;BME280;11099;41.564;23.296;2023-06-14T07:14:52;97368.50;;;26.82;72.86
21869;BME280;11099;41.564;23.296;2023-06-14T07:17:18;97329.66;;;26.47;70.44
21869;BME280;11099;41.564;23.296;2023-06-14T07:19:43;97344.09;;;26.20;74.31
21869;BME280;11099;41.564;23.296;2023-06-14T07:22:08;97320.19;;;26.28;73.28
21869;BME280;11099;41.564;23.296;2023-06-14T07:24:34;97339.63;;;26.07;73.06
21869;BME280;11099;41.564;23.296;2023-06-14T07:27:02;97359.34;;;25.60;76.50
21869;BME280;11099;41.564;23.296;2023-06-14T07:29:28;97265.09;;;25.59;76.89
21869;BME280;11099;41.564;23.296;2023-06-14T07:31:53;97362.19;;;25.80;79.67
21869;BME280;11099;41.564;23.296;2023-06-14T07:34:19;97283.09;;;25.53;77.76
21869;BME280;11099;41.564;23.296;2023-06-14T07:36:44;97358.41;;;26.01;73.86
21869;BME280;11099;41.564;23.296;2023-06-14T07:39:10;97370.78;;;25.79;76.39
21869;BME280;11099;41.564;23.296;2023-06-14T07:41:35;97382.28;;;26.47;75.42
21869;BME280;11099;41.564;23.296;2023-06-14T07:44:01;97347.09;;;26.53;74.28
21869;BME280;11099;41.564;23.296;2023-06-14T07:46:26;97349.56;;;26.71;74.21
21869;BME280;11099;41.564;23.296;2023-06-14T07:48:52;97369.13;;;26.89;74.50
21869;BME280;11099;41.564;23.296;2023-06-14T07:51:17;97386.84;;;27.01;72.96
21869;BME280;11099;41.564;23.296;2023-06-14T07:53:43;97278.47;;;26.74;72.59
21869;BME280;11099;41.564;23.296;2023-06-14T07:56:08;97356.19;;;26.46;73.82
21869;BME280;11099;41.564;23.296;2023-06-14T07:58:34;97360.28;;;26.58;73.29
21869;BME280;11099;41.564;23.296;2023-06-14T08:00:59;97315.66;;;25.64;72.28
21869;BME280;11099;41.564;23.296;2023-06-14T08:03:26;97315.63;;;25.67;71.73
21869;BME280;11099;41.564;23.296;2023-06-14T08:05:52;97313.19;;;25.73;71.50
21869;BME280;11099;41.564;23.296;2023-06-14T08:08:17;97309.00;;;25.95;71.43
21869;BME280;11099;41.564;23.296;2023-06-14T08:10:44;97333.34;;;26.60;71.19
21869;BME280;11099;41.564;23.296;2023-06-14T08:13:09;97330.84;;;26.19;67.14
21869;BME280;11099;41.564;23.296;2023-06-14T08:15:35;97377.59;;;27.18;68.88
21869;BME280;11099;41.564;23.296;2023-06-14T08:18:02;97346.16;;;26.87;66.95
21869;BME280;11099;41.564;23.296;2023-06-14T08:20:28;97379.28;;;26.89;69.31
21869;BME280;11099;41.564;23.296;2023-06-14T08:22:55;97330.50;;;26.67;66.57
21869;BME280;11099;41.564;23.296;2023-06-14T08:25:22;97323.78;;;26.92;66.52
21869;BME280;11099;41.564;23.296;2023-06-14T08:27:47;97388.13;;;27.60;67.56
21869;BME280;11099;41.564;23.296;2023-06-14T08:30:13;97368.56;;;27.41;64.03
21869;BME280;11099;41.564;23.296;2023-06-14T08:32:40;97321.25;;;27.04;64.52
21869;BME280;11099;41.564;23.296;2023-06-14T08:35:06;97377.88;;;27.24;66.75
21869;BME280;11099;41.564;23.296;2023-06-14T08:37:32;97325.19;;;27.23;67.19
21869;BME280;11099;41.564;23.296;2023-06-14T08:39:58;97405.81;;;27.75;66.08
21869;BME280;11099;41.564;23.296;2023-06-14T08:42:24;97394.59;;;28.05;67.41
21869;BME280;11099;41.564;23.296;2023-06-14T08:44:50;97347.22;;;27.92;66.37
21869;BME280;11099;41.564;23.296;2023-06-14T08:47:17;97400.25;;;27.58;64.72
21869;BME280;11099;41.564;23.296;2023-06-14T08:49:47;97393.66;;;27.16;65.93
21869;BME280;11099;41.564;23.296;2023-06-14T08:52:16;97307.97;;;27.03;69.22
21869;BME280;11099;41.564;23.296;2023-06-14T08:54:45;97314.13;;;27.11;68.83
21869;BME280;11099;41.564;23.296;2023-06-14T08:57:13;97372.72;;;28.05;67.46
21869;BME280;11099;41.564;23.296;2023-06-14T08:59:46;97370.44;;;27.84;65.77
21869;BME280;11099;41.564;23.296;2023-06-14T09:02:15;97343.34;;;27.53;66.81
21869;BME280;11099;41.564;23.296;2023-06-14T09:04:44;97310.44;;;27.57;65.92
21869;BME280;11099;41.564;23.296;2023-06-14T09:07:11;97325.66;;;26.75;68.48
21869;BME280;11099;41.564;23.296;2023-06-14T09:09:39;97373.97;;;27.45;67.44
21869;BME280;11099;41.564;23.296;2023-06-14T09:12:10;97357.56;;;27.65;66.08
21869;BME280;11099;41.564;23.296;2023-06-14T09:14:37;97330.34;;;27.57;66.98
21869;BME280;11099;41.564;23.296;2023-06-14T09:17:05;97306.94;;;27.56;64.25
21869;BME280;11099;41.564;23.296;2023-06-14T09:19:31;97284.06;;;27.11;66.40
21869;BME280;11099;41.564;23.296;2023-06-14T09:21:56;97234.19;;;27.07;63.61
21869;BME280;11099;41.564;23.296;2023-06-14T09:24:23;97281.00;;;27.65;64.75
21869;BME280;11099;41.564;23.296;2023-06-14T09:26:51;97252.88;;;27.28;65.36
21869;BME280;11099;41.564;23.296;2023-06-14T09:29:17;97349.63;;;27.11;69.12
21869;BME280;11099;41.564;23.296;2023-06-14T09:31:43;97218.56;;;26.87;65.61
21869;BME280;11099;41.564;23.296;2023-06-14T09:34:09;97335.03;;;27.57;66.48
21869;BME280;11099;41.564;23.296;2023-06-14T09:36:34;97303.47;;;27.16;65.04
21869;BME280;11099;41.564;23.296;2023-06-14T09:39:03;97242.63;;;26.06;64.72
21869;BME280;11099;41.564;23.296;2023-06-14T09:41:37;97246.41;;;26.78;66.25
21869;BME280;11099;41.564;23.296;2023-06-14T09:44:05;97319.50;;;27.34;64.33
21869;BME280;11099;41.564;23.296;2023-06-14T09:46:31;97316.94;;;27.63;65.81
21869;BME280;11099;41.564;23.296;2023-06-14T09:49:01;97237.13;;;27.16;63.86
21869;BME280;11099;41.564;23.296;2023-06-14T09:51:28;97271.50;;;27.33;65.04
21869;BME280;11099;41.564;23.296;2023-06-14T09:53:59;97329.06;;;27.26;67.38
21869;BME280;11099;41.564;23.296;2023-06-14T09:56:31;97335.97;;;27.50;63.50
21869;BME280;11099;41.564;23.296;2023-06-14T09:58:58;97279.81;;;27.10;62.73
21869;BME280;11099;41.564;23.296;2023-06-14T10:01:25;97303.31;;;27.03;62.00
21869;BME280;11099;41.564;23.296;2023-06-14T10:04:12;97324.75;;;27.45;63.22
21869;BME280;11099;41.564;23.296;2023-06-14T10:06:44;97275.00;;;27.14;63.28
21869;BME280;11099;41.564;23.296;2023-06-14T10:09:11;97298.78;;;27.37;62.49
21869;BME280;11099;41.564;23.296;2023-06-14T10:11:38;97326.44;;;27.58;63.36
21869;BME280;11099;41.564;23.296;2023-06-14T10:14:12;97271.84;;;27.35;64.84
21869;BME280;11099;41.564;23.296;2023-06-14T10:19:29;97333.47;;;27.20;65.04
21869;BME280;11099;41.564;23.296;2023-06-14T10:24:44;97347.59;;;27.35;65.70
21869;BME280;11099;41.564;23.296;2023-06-14T10:27:13;97339.13;;;27.49;62.74
21869;BME280;11099;41.564;23.296;2023-06-14T10:32:25;97327.38;;;27.32;63.78
21869;BME280;11099;41.564;23.296;2023-06-14T10:37:23;97276.78;;;26.80;65.10
21869;BME280;11099;41.564;23.296;2023-06-14T10:39:50;97327.06;;;27.07;64.50
21869;BME280;11099;41.564;23.296;2023-06-14T10:42:16;97232.69;;;26.39;65.22
21869;BME280;11099;41.564;23.296;2023-06-14T10:44:51;97269.72;;;26.63;64.51
21869;BME280;11099;41.564;23.296;2023-06-14T10:50:11;97246.75;;;25.90;70.43
21869;BME280;11099;41.564;23.296;2023-06-14T10:52:40;97326.31;;;26.59;70.49
21869;BME280;11099;41.564;23.296;2023-06-14T10:55:18;97286.84;;;26.40;70.38
21869;BME280;11099;41.564;23.296;2023-06-14T10:57:54;97327.59;;;26.55;72.03
21869;BME280;11099;41.564;23.296;2023-06-14T11:00:25;97273.28;;;25.29;72.66
21869;BME280;11099;41.564;23.296;2023-06-14T11:05:54;97335.69;;;24.78;75.74
21869;BME280;11099;41.564;23.296;2023-06-14T11:10:50;97312.38;;;24.29;84.29
21869;BME280;11099;41.564;23.296;2023-06-14T11:13:16;97314.81;;;24.16;90.04
21869;BME280;11099;41.564;23.296;2023-06-14T11:15:47;97358.59;;;24.39;92.66
21869;BME280;11099;41.564;23.296;2023-06-14T11:18:13;97384.09;;;23.93;84.63
21869;BME280;11099;41.564;23.296;2023-06-14T11:20:39;97340.66;;;23.83;87.33
21869;BME280;11099;41.564;23.296;2023-06-14T11:23:05;97253.78;;;22.70;90.93
21869;BME280;11099;41.564;23.296;2023-06-14T11:25:32;97375.53;;;23.99;97.50
21869;BME280;11099;41.564;23.296;2023-06-14T11:27:58;97304.09;;;23.07;100.00
21869;BME280;11099;41.564;23.296;2023-06-14T11:30:33;97363.47;;;22.91;100.00
21869;BME280;11099;41.564;23.296;2023-06-14T11:32:59;97271.22;;;22.76;100.00
21869;BME280;11099;41.564;23.296;2023-06-14T11:35:25;97347.03;;;23.48;100.00
21869;BME280;11099;41.564;23.296;2023-06-14T11:37:58;97348.13;;;23.64;100.00
21869;BME280;11099;41.564;23.296;2023-06-14T11:40:24;97335.34;;;23.58;100.00
21869;BME280;11099;41.564;23.296;2023-06-14T11:42:58;97319.97;;;23.12;100.00
21869;BME280;11099;41.564;23.296;2023-06-14T11:45:24;97331.94;;;23.36;100.00
21869;BME280;11099;41.564;23.296;2023-06-14T11:47:50;97344.66;;;23.53;100.00
21869;BME280;11099;41.564;23.296;2023-06-14T11:50:16;97315.34;;;23.02;100.00
21869;BME280;11099;41.564;23.296;2023-06-14T11:52:42;97264.41;;;23.42;100.00
21869;BME280;11099;41.564;23.296;2023-06-14T11:55:08;97237.59;;;23.47;100.00
21869;BME280;11099;41.564;23.296;2023-06-14T11:57:35;97320.41;;;24.47;100.00
21869;BME280;11099;41.564;23.296;2023-06-14T12:00:06;97184.31;;;23.64;100.00
21869;BME280;11099;41.564;23.296;2023-06-14T12:02:40;97218.00;;;24.22;100.00
21869;BME280;11099;41.564;23.296;2023-06-14T12:05:06;97276.28;;;24.66;100.00
21869;BME280;11099;41.564;23.296;2023-06-14T12:07:35;97314.81;;;25.02;100.00
21869;BME280;11099;41.564;23.296;2023-06-14T12:12:28;97286.22;;;25.21;100.00
21869;BME280;11099;41.564;23.296;2023-06-14T12:14:57;97313.41;;;25.28;99.30
21869;BME280;11099;41.564;23.296;2023-06-14T12:17:23;97305.41;;;25.44;97.55
21869;BME280;11099;41.564;23.296;2023-06-14T12:19:50;97315.06;;;25.80;99.65
21869;BME280;11099;41.564;23.296;2023-06-14T12:22:18;97312.78;;;25.78;97.56
21869;BME280;11099;41.564;23.296;2023-06-14T12:24:57;97307.66;;;26.07;95.25
21869;BME280;11099;41.564;23.296;2023-06-14T12:27:30;97321.34;;;26.04;89.19
21869;BME280;11099;41.564;23.296;2023-06-14T12:30:05;97306.75;;;25.90;88.24
21869;BME280;11099;41.564;23.296;2023-06-14T12:32:43;97263.81;;;25.67;80.69
21869;BME280;11099;41.564;23.296;2023-06-14T12:35:12;97240.69;;;25.79;83.21
21869;BME280;11099;41.564;23.296;2023-06-14T12:37:40;97258.09;;;25.89;82.95
21869;BME280;11099;41.564;23.296;2023-06-14T12:40:14;97266.28;;;26.12;84.93
21869;BME280;11099;41.564;23.296;2023-06-14T12:42:44;97269.38;;;26.38;84.39
21869;BME280;11099;41.564;23.296;2023-06-14T12:45:14;97295.34;;;26.69;81.76
21869;BME280;11099;41.564;23.296;2023-06-14T12:47:44;97245.75;;;26.27;79.22
21869;BME280;11099;41.564;23.296;2023-06-14T12:50:13;97288.19;;;26.56;80.13
21869;BME280;11099;41.564;23.296;2023-06-14T12:52:41;97192.66;;;26.32;83.48
21869;BME280;11099;41.564;23.296;2023-06-14T12:55:19;97247.75;;;26.70;80.84
21869;BME280;11099;41.564;23.296;2023-06-14T12:57:47;97284.41;;;26.93;73.57
21869;BME280;11099;41.564;23.296;2023-06-14T13:00:18;97210.91;;;26.59;75.44
21869;BME280;11099;41.564;23.296;2023-06-14T13:02:47;97231.13;;;26.81;72.08
21869;BME280;11099;41.564;23.296;2023-06-14T13:05:21;97268.13;;;27.05;73.98
21869;BME280;11099;41.564;23.296;2023-06-14T13:08:00;97261.50;;;27.07;73.46